Camapua, Brazil
Current Conditions -  °F | °C
As of 11:00 AM on Saturday 25 Oct 2014 (Local Time) from SBCG Reporting Station
Broken Clouds Broken Clouds  
Wind Chill: 73°   Ceiling: 2000
Heat Index: 73°   Visibility: 6mi
Dew Point: 66°   Wind: 8mph
Humidity: 78%   Direction: 340°NNW
Pressure: 29.97"   Gusts: NA
Location:  19.53°S, 54.04°W
Report Text: SBCG 251400Z 34007KT 9999 SCT013 BKN020 FEW040TCU BKN100 23/19 Q1015
Loading
Personal Weather Stations






























Interactive Weather Map
Tropical Storm Tracking
New forecast layout! Learn more

10-Day Weather Forecast

Advertisements
Track Severe Weather on mobile